sensor_id;sensor_type;location;lat;lon;timestamp;P1;durP1;ratioP1;P2;durP2;ratioP2
39140;SDS011;24875;48.436;10.298;2023-06-26T00:01:34;3.60;;;1.58;;
39140;SDS011;24875;48.436;10.298;2023-06-26T00:04:01;2.97;;;2.00;;
39140;SDS011;24875;48.436;10.298;2023-06-26T00:06:27;3.72;;;1.92;;
39140;SDS011;24875;48.436;10.298;2023-06-26T00:08:54;2.53;;;1.92;;
39140;SDS011;24875;48.436;10.298;2023-06-26T00:11:22;6.05;;;2.28;;
39140;SDS011;24875;48.436;10.298;2023-06-26T00:13:49;5.15;;;2.35;;
39140;SDS011;24875;48.436;10.298;2023-06-26T00:16:15;5.00;;;2.47;;
39140;SDS011;24875;48.436;10.298;2023-06-26T00:18:43;3.58;;;2.25;;
39140;SDS011;24875;48.436;10.298;2023-06-26T00:21:09;5.50;;;2.55;;
39140;SDS011;24875;48.436;10.298;2023-06-26T00:23:36;5.60;;;3.17;;
39140;SDS011;24875;48.436;10.298;2023-06-26T00:26:02;3.75;;;1.73;;
39140;SDS011;24875;48.436;10.298;2023-06-26T00:28:29;3.88;;;1.40;;
39140;SDS011;24875;48.436;10.298;2023-06-26T00:30:55;3.70;;;1.67;;
39140;SDS011;24875;48.436;10.298;2023-06-26T00:33:22;2.80;;;1.80;;
39140;SDS011;24875;48.436;10.298;2023-06-26T00:35:50;3.88;;;2.60;;
39140;SDS011;24875;48.436;10.298;2023-06-26T00:38:16;5.90;;;1.92;;
39140;SDS011;24875;48.436;10.298;2023-06-26T00:40:43;2.92;;;1.52;;
39140;SDS011;24875;48.436;10.298;2023-06-26T00:43:09;3.08;;;1.33;;
39140;SDS011;24875;48.436;10.298;2023-06-26T00:45:36;13.57;;;2.58;;
39140;SDS011;24875;48.436;10.298;2023-06-26T00:48:02;3.25;;;1.70;;
39140;SDS011;24875;48.436;10.298;2023-06-26T00:50:29;4.47;;;1.95;;
39140;SDS011;24875;48.436;10.298;2023-06-26T00:52:57;4.32;;;1.67;;
39140;SDS011;24875;48.436;10.298;2023-06-26T00:55:25;3.83;;;1.70;;
39140;SDS011;24875;48.436;10.298;2023-06-26T00:57:52;2.85;;;2.00;;
39140;SDS011;24875;48.436;10.298;2023-06-26T01:00:18;3.75;;;1.92;;
39140;SDS011;24875;48.436;10.298;2023-06-26T01:02:45;3.50;;;1.45;;
39140;SDS011;24875;48.436;10.298;2023-06-26T01:05:12;4.90;;;1.83;;
39140;SDS011;24875;48.436;10.298;2023-06-26T01:07:45;2.35;;;1.45;;
39140;SDS011;24875;48.436;10.298;2023-06-26T01:10:14;4.68;;;1.98;;
39140;SDS011;24875;48.436;10.298;2023-06-26T01:12:41;3.92;;;2.03;;
39140;SDS011;24875;48.436;10.298;2023-06-26T01:15:08;7.68;;;2.22;;
39140;SDS011;24875;48.436;10.298;2023-06-26T01:17:36;4.57;;;1.58;;
39140;SDS011;24875;48.436;10.298;2023-06-26T01:20:04;2.38;;;1.65;;
39140;SDS011;24875;48.436;10.298;2023-06-26T01:22:34;4.47;;;2.10;;
39140;SDS011;24875;48.436;10.298;2023-06-26T01:25:11;3.42;;;1.77;;
39140;SDS011;24875;48.436;10.298;2023-06-26T01:27:45;4.22;;;2.30;;
39140;SDS011;24875;48.436;10.298;2023-06-26T01:30:12;4.35;;;2.03;;
39140;SDS011;24875;48.436;10.298;2023-06-26T01:32:41;3.50;;;1.80;;
39140;SDS011;24875;48.436;10.298;2023-06-26T01:35:09;6.22;;;2.63;;
39140;SDS011;24875;48.436;10.298;2023-06-26T01:37:37;4.75;;;1.83;;
39140;SDS011;24875;48.436;10.298;2023-06-26T01:40:04;4.97;;;1.77;;
39140;SDS011;24875;48.436;10.298;2023-06-26T01:42:31;5.07;;;1.95;;
39140;SDS011;24875;48.436;10.298;2023-06-26T01:44:59;4.57;;;2.03;;
39140;SDS011;24875;48.436;10.298;2023-06-26T01:47:28;4.00;;;2.60;;
39140;SDS011;24875;48.436;10.298;2023-06-26T01:49:59;4.78;;;2.63;;
39140;SDS011;24875;48.436;10.298;2023-06-26T01:52:32;3.05;;;2.10;;
39140;SDS011;24875;48.436;10.298;2023-06-26T01:55:08;2.63;;;1.58;;
39140;SDS011;24875;48.436;10.298;2023-06-26T01:57:41;7.25;;;2.25;;
39140;SDS011;24875;48.436;10.298;2023-06-26T02:00:10;9.02;;;2.28;;
39140;SDS011;24875;48.436;10.298;2023-06-26T02:02:39;3.00;;;1.52;;
39140;SDS011;24875;48.436;10.298;2023-06-26T02:05:07;3.72;;;2.33;;
39140;SDS011;24875;48.436;10.298;2023-06-26T02:07:33;3.65;;;2.00;;
39140;SDS011;24875;48.436;10.298;2023-06-26T02:10:00;5.57;;;2.50;;
39140;SDS011;24875;48.436;10.298;2023-06-26T02:12:27;4.68;;;1.80;;
39140;SDS011;24875;48.436;10.298;2023-06-26T02:14:53;5.47;;;2.03;;
39140;SDS011;24875;48.436;10.298;2023-06-26T02:17:21;4.75;;;2.05;;
39140;SDS011;24875;48.436;10.298;2023-06-26T02:19:48;4.75;;;2.13;;
39140;SDS011;24875;48.436;10.298;2023-06-26T02:22:14;7.25;;;2.42;;
39140;SDS011;24875;48.436;10.298;2023-06-26T02:24:41;4.60;;;2.47;;
39140;SDS011;24875;48.436;10.298;2023-06-26T02:27:08;4.40;;;2.28;;
39140;SDS011;24875;48.436;10.298;2023-06-26T02:29:34;2.55;;;1.85;;
39140;SDS011;24875;48.436;10.298;2023-06-26T02:32:01;4.13;;;2.28;;
39140;SDS011;24875;48.436;10.298;2023-06-26T02:34:29;8.07;;;2.10;;
39140;SDS011;24875;48.436;10.298;2023-06-26T02:36:55;5.07;;;2.80;;
39140;SDS011;24875;48.436;10.298;2023-06-26T02:39:23;5.47;;;2.45;;
39140;SDS011;24875;48.436;10.298;2023-06-26T02:41:50;3.95;;;2.08;;
39140;SDS011;24875;48.436;10.298;2023-06-26T02:44:16;4.43;;;2.03;;
39140;SDS011;24875;48.436;10.298;2023-06-26T02:46:43;4.40;;;2.03;;
39140;SDS011;24875;48.436;10.298;2023-06-26T02:49:10;4.68;;;1.95;;
39140;SDS011;24875;48.436;10.298;2023-06-26T02:51:38;7.45;;;2.47;;
39140;SDS011;24875;48.436;10.298;2023-06-26T02:54:04;3.72;;;2.15;;
39140;SDS011;24875;48.436;10.298;2023-06-26T02:56:31;6.13;;;2.80;;
39140;SDS011;24875;48.436;10.298;2023-06-26T02:58:58;5.05;;;2.47;;
39140;SDS011;24875;48.436;10.298;2023-06-26T03:01:24;3.92;;;1.75;;
39140;SDS011;24875;48.436;10.298;2023-06-26T03:03:51;6.20;;;2.78;;
39140;SDS011;24875;48.436;10.298;2023-06-26T03:06:17;4.13;;;2.50;;
39140;SDS011;24875;48.436;10.298;2023-06-26T03:08:45;4.05;;;2.38;;
39140;SDS011;24875;48.436;10.298;2023-06-26T03:11:12;4.43;;;2.25;;
39140;SDS011;24875;48.436;10.298;2023-06-26T03:13:38;5.30;;;2.22;;
39140;SDS011;24875;48.436;10.298;2023-06-26T03:16:05;7.15;;;2.20;;
39140;SDS011;24875;48.436;10.298;2023-06-26T03:18:31;3.67;;;1.80;;
39140;SDS011;24875;48.436;10.298;2023-06-26T03:20:57;5.47;;;2.28;;
39140;SDS011;24875;48.436;10.298;2023-06-26T03:23:24;5.65;;;2.63;;
39140;SDS011;24875;48.436;10.298;2023-06-26T03:25:52;5.07;;;2.45;;
39140;SDS011;24875;48.436;10.298;2023-06-26T03:28:19;3.17;;;1.75;;
39140;SDS011;24875;48.436;10.298;2023-06-26T03:30:45;4.88;;;1.92;;
39140;SDS011;24875;48.436;10.298;2023-06-26T03:33:12;3.95;;;2.58;;
39140;SDS011;24875;48.436;10.298;2023-06-26T03:35:38;10.63;;;2.78;;
39140;SDS011;24875;48.436;10.298;2023-06-26T03:38:05;5.57;;;2.17;;
39140;SDS011;24875;48.436;10.298;2023-06-26T03:40:31;2.75;;;1.60;;
39140;SDS011;24875;48.436;10.298;2023-06-26T03:42:59;6.30;;;3.10;;
39140;SDS011;24875;48.436;10.298;2023-06-26T03:45:25;5.63;;;2.53;;
39140;SDS011;24875;48.436;10.298;2023-06-26T03:47:52;5.93;;;2.33;;
39140;SDS011;24875;48.436;10.298;2023-06-26T03:50:18;3.88;;;2.17;;
39140;SDS011;24875;48.436;10.298;2023-06-26T03:52:45;3.28;;;2.03;;
39140;SDS011;24875;48.436;10.298;2023-06-26T03:55:12;8.07;;;1.58;;
39140;SDS011;24875;48.436;10.298;2023-06-26T03:57:38;6.85;;;3.10;;
39140;SDS011;24875;48.436;10.298;2023-06-26T04:00:07;6.28;;;2.35;;
39140;SDS011;24875;48.436;10.298;2023-06-26T04:02:36;9.27;;;2.45;;
39140;SDS011;24875;48.436;10.298;2023-06-26T04:05:03;4.15;;;2.53;;
39140;SDS011;24875;48.436;10.298;2023-06-26T04:07:30;5.00;;;1.88;;
39140;SDS011;24875;48.436;10.298;2023-06-26T04:09:57;4.00;;;2.22;;
39140;SDS011;24875;48.436;10.298;2023-06-26T04:12:23;7.80;;;2.38;;
39140;SDS011;24875;48.436;10.298;2023-06-26T04:14:49;6.07;;;2.70;;
39140;SDS011;24875;48.436;10.298;2023-06-26T04:17:17;5.97;;;2.28;;
39140;SDS011;24875;48.436;10.298;2023-06-26T04:19:44;5.93;;;2.13;;
39140;SDS011;24875;48.436;10.298;2023-06-26T04:22:11;6.82;;;2.47;;
39140;SDS011;24875;48.436;10.298;2023-06-26T04:24:37;5.38;;;2.65;;
39140;SDS011;24875;48.436;10.298;2023-06-26T04:27:04;7.30;;;2.45;;
39140;SDS011;24875;48.436;10.298;2023-06-26T04:29:31;4.38;;;1.73;;
39140;SDS011;24875;48.436;10.298;2023-06-26T04:31:57;8.35;;;2.35;;
39140;SDS011;24875;48.436;10.298;2023-06-26T04:34:25;5.20;;;2.78;;
39140;SDS011;24875;48.436;10.298;2023-06-26T04:36:52;7.05;;;2.97;;
39140;SDS011;24875;48.436;10.298;2023-06-26T04:39:18;8.52;;;2.95;;
39140;SDS011;24875;48.436;10.298;2023-06-26T04:41:45;9.05;;;3.28;;
39140;SDS011;24875;48.436;10.298;2023-06-26T04:44:11;6.30;;;2.88;;
39140;SDS011;24875;48.436;10.298;2023-06-26T04:46:38;6.35;;;2.20;;
39140;SDS011;24875;48.436;10.298;2023-06-26T04:49:06;5.70;;;2.83;;
39140;SDS011;24875;48.436;10.298;2023-06-26T04:51:33;3.47;;;1.98;;
39140;SDS011;24875;48.436;10.298;2023-06-26T04:54:05;8.65;;;3.17;;
39140;SDS011;24875;48.436;10.298;2023-06-26T04:56:32;5.95;;;2.63;;
39140;SDS011;24875;48.436;10.298;2023-06-26T04:58:58;6.80;;;3.00;;
39140;SDS011;24875;48.436;10.298;2023-06-26T05:01:25;6.78;;;2.92;;
39140;SDS011;24875;48.436;10.298;2023-06-26T05:03:54;6.07;;;3.33;;
39140;SDS011;24875;48.436;10.298;2023-06-26T05:06:21;6.72;;;2.42;;
39140;SDS011;24875;48.436;10.298;2023-06-26T05:08:48;6.10;;;2.50;;
39140;SDS011;24875;48.436;10.298;2023-06-26T05:11:15;7.13;;;2.80;;
39140;SDS011;24875;48.436;10.298;2023-06-26T05:13:41;4.70;;;2.58;;
39140;SDS011;24875;48.436;10.298;2023-06-26T05:16:08;6.93;;;3.13;;
39140;SDS011;24875;48.436;10.298;2023-06-26T05:18:35;5.20;;;2.25;;
39140;SDS011;24875;48.436;10.298;2023-06-26T05:21:01;6.68;;;3.55;;
39140;SDS011;24875;48.436;10.298;2023-06-26T05:23:29;8.50;;;3.85;;
39140;SDS011;24875;48.436;10.298;2023-06-26T05:25:59;6.15;;;3.42;;
39140;SDS011;24875;48.436;10.298;2023-06-26T05:28:26;7.32;;;2.75;;
39140;SDS011;24875;48.436;10.298;2023-06-26T05:30:56;8.40;;;3.15;;
39140;SDS011;24875;48.436;10.298;2023-06-26T05:33:23;9.85;;;2.88;;
39140;SDS011;24875;48.436;10.298;2023-06-26T05:35:52;7.25;;;2.85;;
39140;SDS011;24875;48.436;10.298;2023-06-26T05:38:19;9.52;;;2.75;;
39140;SDS011;24875;48.436;10.298;2023-06-26T05:40:45;7.05;;;3.67;;
39140;SDS011;24875;48.436;10.298;2023-06-26T05:43:14;9.55;;;3.47;;
39140;SDS011;24875;48.436;10.298;2023-06-26T05:45:41;9.38;;;3.47;;
39140;SDS011;24875;48.436;10.298;2023-06-26T05:48:07;7.05;;;2.80;;
39140;SDS011;24875;48.436;10.298;2023-06-26T05:50:34;5.40;;;2.85;;
39140;SDS011;24875;48.436;10.298;2023-06-26T05:53:01;6.13;;;2.85;;
39140;SDS011;24875;48.436;10.298;2023-06-26T05:55:29;8.18;;;3.22;;
39140;SDS011;24875;48.436;10.298;2023-06-26T05:57:56;4.85;;;1.90;;
39140;SDS011;24875;48.436;10.298;2023-06-26T06:00:26;9.75;;;3.15;;
39140;SDS011;24875;48.436;10.298;2023-06-26T06:02:53;6.93;;;3.47;;
39140;SDS011;24875;48.436;10.298;2023-06-26T06:05:20;6.78;;;3.00;;
39140;SDS011;24875;48.436;10.298;2023-06-26T06:07:47;7.15;;;3.10;;
39140;SDS011;24875;48.436;10.298;2023-06-26T06:10:13;11.05;;;5.03;;
39140;SDS011;24875;48.436;10.298;2023-06-26T06:12:40;8.48;;;4.30;;
39140;SDS011;24875;48.436;10.298;2023-06-26T06:15:07;10.10;;;3.85;;
39140;SDS011;24875;48.436;10.298;2023-06-26T06:17:35;9.85;;;4.43;;
39140;SDS011;24875;48.436;10.298;2023-06-26T06:20:02;9.30;;;3.60;;
39140;SDS011;24875;48.436;10.298;2023-06-26T06:22:29;9.05;;;3.33;;
39140;SDS011;24875;48.436;10.298;2023-06-26T06:24:55;11.32;;;2.97;;
39140;SDS011;24875;48.436;10.298;2023-06-26T06:27:22;8.00;;;3.22;;
39140;SDS011;24875;48.436;10.298;2023-06-26T06:29:48;6.57;;;2.60;;
39140;SDS011;24875;48.436;10.298;2023-06-26T06:32:15;10.50;;;4.35;;
39140;SDS011;24875;48.436;10.298;2023-06-26T06:34:42;7.03;;;2.78;;
39140;SDS011;24875;48.436;10.298;2023-06-26T06:37:09;5.65;;;2.83;;
39140;SDS011;24875;48.436;10.298;2023-06-26T06:39:35;7.30;;;3.33;;
39140;SDS011;24875;48.436;10.298;2023-06-26T06:42:01;11.05;;;4.10;;
39140;SDS011;24875;48.436;10.298;2023-06-26T06:44:28;6.53;;;2.78;;
39140;SDS011;24875;48.436;10.298;2023-06-26T06:46:55;7.57;;;3.70;;
39140;SDS011;24875;48.436;10.298;2023-06-26T06:49:22;8.73;;;3.50;;
39140;SDS011;24875;48.436;10.298;2023-06-26T06:51:49;7.97;;;3.88;;
39140;SDS011;24875;48.436;10.298;2023-06-26T06:54:16;8.75;;;3.38;;
39140;SDS011;24875;48.436;10.298;2023-06-26T06:56:43;7.00;;;2.80;;
39140;SDS011;24875;48.436;10.298;2023-06-26T06:59:09;7.40;;;3.40;;
39140;SDS011;24875;48.436;10.298;2023-06-26T07:01:35;7.95;;;3.53;;
39140;SDS011;24875;48.436;10.298;2023-06-26T07:04:02;7.75;;;2.95;;
39140;SDS011;24875;48.436;10.298;2023-06-26T07:06:29;6.93;;;3.15;;
39140;SDS011;24875;48.436;10.298;2023-06-26T07:08:57;5.57;;;2.63;;
39140;SDS011;24875;48.436;10.298;2023-06-26T07:11:23;8.82;;;3.35;;
39140;SDS011;24875;48.436;10.298;2023-06-26T07:13:50;5.97;;;3.00;;
39140;SDS011;24875;48.436;10.298;2023-06-26T07:16:16;10.63;;;3.35;;
39140;SDS011;24875;48.436;10.298;2023-06-26T07:18:43;4.97;;;2.50;;
39140;SDS011;24875;48.436;10.298;2023-06-26T07:21:10;6.22;;;3.00;;
39140;SDS011;24875;48.436;10.298;2023-06-26T07:23:36;6.53;;;2.33;;
39140;SDS011;24875;48.436;10.298;2023-06-26T07:26:04;11.02;;;3.47;;
39140;SDS011;24875;48.436;10.298;2023-06-26T07:28:31;5.90;;;2.80;;
39140;SDS011;24875;48.436;10.298;2023-06-26T07:30:57;11.68;;;3.08;;
39140;SDS011;24875;48.436;10.298;2023-06-26T07:33:24;4.65;;;2.60;;
39140;SDS011;24875;48.436;10.298;2023-06-26T07:35:50;9.18;;;3.30;;
39140;SDS011;24875;48.436;10.298;2023-06-26T07:38:16;4.82;;;2.28;;
39140;SDS011;24875;48.436;10.298;2023-06-26T07:40:43;4.03;;;2.33;;
39140;SDS011;24875;48.436;10.298;2023-06-26T07:43:11;3.90;;;2.30;;
39140;SDS011;24875;48.436;10.298;2023-06-26T07:45:37;3.22;;;2.08;;
39140;SDS011;24875;48.436;10.298;2023-06-26T07:48:05;4.03;;;2.63;;
39140;SDS011;24875;48.436;10.298;2023-06-26T07:50:32;5.05;;;2.58;;
39140;SDS011;24875;48.436;10.298;2023-06-26T07:52:59;5.68;;;2.38;;
39140;SDS011;24875;48.436;10.298;2023-06-26T07:55:25;5.57;;;2.80;;
39140;SDS011;24875;48.436;10.298;2023-06-26T07:57:52;2.28;;;1.58;;
39140;SDS011;24875;48.436;10.298;2023-06-26T08:00:21;4.68;;;2.22;;
39140;SDS011;24875;48.436;10.298;2023-06-26T08:02:48;5.90;;;2.72;;
39140;SDS011;24875;48.436;10.298;2023-06-26T08:05:14;3.20;;;2.20;;
39140;SDS011;24875;48.436;10.298;2023-06-26T08:07:41;5.15;;;2.22;;
39140;SDS011;24875;48.436;10.298;2023-06-26T08:10:07;5.13;;;2.40;;
39140;SDS011;24875;48.436;10.298;2023-06-26T08:12:34;3.72;;;1.80;;
39140;SDS011;24875;48.436;10.298;2023-06-26T08:15:05;5.10;;;2.63;;
39140;SDS011;24875;48.436;10.298;2023-06-26T08:17:33;4.00;;;2.13;;
39140;SDS011;24875;48.436;10.298;2023-06-26T08:20:01;5.05;;;2.25;;
39140;SDS011;24875;48.436;10.298;2023-06-26T08:22:27;7.78;;;2.42;;
39140;SDS011;24875;48.436;10.298;2023-06-26T08:24:53;3.13;;;1.85;;
39140;SDS011;24875;48.436;10.298;2023-06-26T08:27:20;5.03;;;2.28;;
39140;SDS011;24875;48.436;10.298;2023-06-26T08:29:46;7.97;;;3.22;;
39140;SDS011;24875;48.436;10.298;2023-06-26T08:32:13;4.82;;;2.67;;
39140;SDS011;24875;48.436;10.298;2023-06-26T08:34:41;4.30;;;2.10;;
39140;SDS011;24875;48.436;10.298;2023-06-26T08:37:07;4.07;;;2.15;;
39140;SDS011;24875;48.436;10.298;2023-06-26T08:39:34;4.32;;;2.47;;
39140;SDS011;24875;48.436;10.298;2023-06-26T08:42:01;4.93;;;2.42;;
39140;SDS011;24875;48.436;10.298;2023-06-26T08:44:27;5.53;;;2.25;;
39140;SDS011;24875;48.436;10.298;2023-06-26T08:46:54;7.60;;;2.88;;
39140;SDS011;24875;48.436;10.298;2023-06-26T08:49:21;6.43;;;2.10;;
39140;SDS011;24875;48.436;10.298;2023-06-26T08:51:59;10.32;;;2.80;;
39140;SDS011;24875;48.436;10.298;2023-06-26T08:54:34;2.70;;;1.20;;
39140;SDS011;24875;48.436;10.298;2023-06-26T08:57:03;3.42;;;1.73;;
39140;SDS011;24875;48.436;10.298;2023-06-26T08:59:31;4.07;;;1.98;;
39140;SDS011;24875;48.436;10.298;2023-06-26T09:01:58;4.30;;;2.47;;
39140;SDS011;24875;48.436;10.298;2023-06-26T09:04:25;2.30;;;1.63;;
39140;SDS011;24875;48.436;10.298;2023-06-26T09:06:51;5.38;;;2.63;;
39140;SDS011;24875;48.436;10.298;2023-06-26T09:09:19;4.00;;;2.05;;
39140;SDS011;24875;48.436;10.298;2023-06-26T09:11:46;4.85;;;2.58;;
39140;SDS011;24875;48.436;10.298;2023-06-26T09:14:13;2.80;;;1.83;;
39140;SDS011;24875;48.436;10.298;2023-06-26T09:16:40;3.60;;;2.20;;
39140;SDS011;24875;48.436;10.298;2023-06-26T09:19:08;3.85;;;2.08;;
39140;SDS011;24875;48.436;10.298;2023-06-26T09:21:36;4.57;;;2.17;;
39140;SDS011;24875;48.436;10.298;2023-06-26T09:24:04;8.82;;;2.03;;
39140;SDS011;24875;48.436;10.298;2023-06-26T09:26:34;2.95;;;1.27;;
39140;SDS011;24875;48.436;10.298;2023-06-26T09:29:01;4.00;;;2.05;;
39140;SDS011;24875;48.436;10.298;2023-06-26T09:31:28;3.40;;;1.63;;
39140;SDS011;24875;48.436;10.298;2023-06-26T09:33:57;6.57;;;2.55;;
39140;SDS011;24875;48.436;10.298;2023-06-26T09:36:26;5.95;;;2.38;;
39140;SDS011;24875;48.436;10.298;2023-06-26T09:38:53;5.18;;;2.53;;
39140;SDS011;24875;48.436;10.298;2023-06-26T09:41:20;5.22;;;2.08;;
39140;SDS011;24875;48.436;10.298;2023-06-26T09:43:48;4.40;;;2.53;;
39140;SDS011;24875;48.436;10.298;2023-06-26T09:46:15;3.80;;;2.10;;
39140;SDS011;24875;48.436;10.298;2023-06-26T09:48:43;4.18;;;1.95;;
39140;SDS011;24875;48.436;10.298;2023-06-26T09:51:09;2.00;;;1.58;;
39140;SDS011;24875;48.436;10.298;2023-06-26T09:53:36;3.20;;;2.08;;
39140;SDS011;24875;48.436;10.298;2023-06-26T09:56:05;3.60;;;2.22;;
39140;SDS011;24875;48.436;10.298;2023-06-26T10:01:00;5.22;;;2.67;;
39140;SDS011;24875;48.436;10.298;2023-06-26T10:03:27;3.90;;;2.30;;
39140;SDS011;24875;48.436;10.298;2023-06-26T10:05:53;2.92;;;2.03;;
39140;SDS011;24875;48.436;10.298;2023-06-26T10:08:20;4.57;;;2.17;;
39140;SDS011;24875;48.436;10.298;2023-06-26T10:10:47;2.97;;;1.90;;
39140;SDS011;24875;48.436;10.298;2023-06-26T10:13:15;3.25;;;1.90;;
39140;SDS011;24875;48.436;10.298;2023-06-26T10:15:46;2.53;;;1.75;;
39140;SDS011;24875;48.436;10.298;2023-06-26T10:18:17;1.58;;;1.05;;
39140;SDS011;24875;48.436;10.298;2023-06-26T10:20:45;2.05;;;1.15;;
39140;SDS011;24875;48.436;10.298;2023-06-26T10:23:13;2.28;;;1.13;;
39140;SDS011;24875;48.436;10.298;2023-06-26T10:25:41;4.47;;;2.05;;
39140;SDS011;24875;48.436;10.298;2023-06-26T10:28:12;7.05;;;2.70;;
39140;SDS011;24875;48.436;10.298;2023-06-26T10:30:41;3.15;;;1.70;;
39140;SDS011;24875;48.436;10.298;2023-06-26T10:33:10;2.28;;;1.23;;
39140;SDS011;24875;48.436;10.298;2023-06-26T10:35:42;4.13;;;2.13;;
39140;SDS011;24875;48.436;10.298;2023-06-26T10:38:09;3.25;;;1.52;;
39140;SDS011;24875;48.436;10.298;2023-06-26T10:40:40;2.70;;;1.50;;
39140;SDS011;24875;48.436;10.298;2023-06-26T10:43:08;2.97;;;1.90;;
39140;SDS011;24875;48.436;10.298;2023-06-26T10:45:36;2.78;;;1.65;;
39140;SDS011;24875;48.436;10.298;2023-06-26T10:48:03;2.83;;;1.73;;
39140;SDS011;24875;48.436;10.298;2023-06-26T10:50:30;1.83;;;1.38;;
39140;SDS011;24875;48.436;10.298;2023-06-26T10:53:15;3.13;;;1.58;;
39140;SDS011;24875;48.436;10.298;2023-06-26T10:55:50;3.78;;;1.88;;
39140;SDS011;24875;48.436;10.298;2023-06-26T10:58:28;2.92;;;1.55;;
39140;SDS011;24875;48.436;10.298;2023-06-26T11:01:13;3.88;;;2.00;;
39140;SDS011;24875;48.436;10.298;2023-06-26T11:03:41;3.58;;;1.92;;
39140;SDS011;24875;48.436;10.298;2023-06-26T11:06:10;3.88;;;1.77;;
39140;SDS011;24875;48.436;10.298;2023-06-26T11:08:47;2.83;;;2.05;;
39140;SDS011;24875;48.436;10.298;2023-06-26T11:11:15;2.63;;;1.70;;
39140;SDS011;24875;48.436;10.298;2023-06-26T11:13:44;3.55;;;1.92;;
39140;SDS011;24875;48.436;10.298;2023-06-26T11:16:11;2.88;;;1.42;;
39140;SDS011;24875;48.436;10.298;2023-06-26T11:18:39;2.47;;;1.55;;
39140;SDS011;24875;48.436;10.298;2023-06-26T11:21:06;2.60;;;1.67;;
39140;SDS011;24875;48.436;10.298;2023-06-26T11:23:33;2.42;;;1.58;;
39140;SDS011;24875;48.436;10.298;2023-06-26T11:26:15;4.05;;;1.75;;
39140;SDS011;24875;48.436;10.298;2023-06-26T11:28:48;3.72;;;1.63;;
39140;SDS011;24875;48.436;10.298;2023-06-26T11:31:25;3.58;;;2.22;;
39140;SDS011;24875;48.436;10.298;2023-06-26T11:33:52;3.33;;;1.92;;
39140;SDS011;24875;48.436;10.298;2023-06-26T11:36:19;3.10;;;1.95;;
39140;SDS011;24875;48.436;10.298;2023-06-26T11:38:45;3.75;;;1.95;;
39140;SDS011;24875;48.436;10.298;2023-06-26T11:41:17;3.55;;;1.90;;
39140;SDS011;24875;48.436;10.298;2023-06-26T11:43:44;4.22;;;2.05;;
39140;SDS011;24875;48.436;10.298;2023-06-26T11:46:10;3.83;;;1.60;;
39140;SDS011;24875;48.436;10.298;2023-06-26T11:48:36;2.95;;;1.80;;
39140;SDS011;24875;48.436;10.298;2023-06-26T11:51:03;4.35;;;1.90;;
39140;SDS011;24875;48.436;10.298;2023-06-26T11:53:30;6.35;;;2.00;;
39140;SDS011;24875;48.436;10.298;2023-06-26T11:55:56;4.00;;;2.03;;
39140;SDS011;24875;48.436;10.298;2023-06-26T11:58:24;3.72;;;1.85;;
39140;SDS011;24875;48.436;10.298;2023-06-26T12:00:50;2.75;;;1.55;;
39140;SDS011;24875;48.436;10.298;2023-06-26T12:03:17;3.53;;;2.13;;
39140;SDS011;24875;48.436;10.298;2023-06-26T12:05:44;3.90;;;2.00;;
39140;SDS011;24875;48.436;10.298;2023-06-26T12:08:10;3.00;;;1.80;;
39140;SDS011;24875;48.436;10.298;2023-06-26T12:10:37;2.97;;;1.70;;
39140;SDS011;24875;48.436;10.298;2023-06-26T12:13:04;3.78;;;2.10;;
39140;SDS011;24875;48.436;10.298;2023-06-26T12:15:32;4.05;;;2.35;;
39140;SDS011;24875;48.436;10.298;2023-06-26T12:17:58;3.97;;;1.73;;
39140;SDS011;24875;48.436;10.298;2023-06-26T12:20:25;5.00;;;2.67;;
39140;SDS011;24875;48.436;10.298;2023-06-26T12:22:55;3.58;;;2.28;;
39140;SDS011;24875;48.436;10.298;2023-06-26T12:25:22;2.83;;;1.80;;
39140;SDS011;24875;48.436;10.298;2023-06-26T12:27:49;3.33;;;2.10;;
39140;SDS011;24875;48.436;10.298;2023-06-26T12:30:16;3.20;;;1.98;;
39140;SDS011;24875;48.436;10.298;2023-06-26T12:32:45;3.80;;;2.00;;
39140;SDS011;24875;48.436;10.298;2023-06-26T12:35:12;3.38;;;1.90;;
39140;SDS011;24875;48.436;10.298;2023-06-26T12:37:41;3.80;;;2.30;;
39140;SDS011;24875;48.436;10.298;2023-06-26T12:40:15;4.43;;;2.03;;
39140;SDS011;24875;48.436;10.298;2023-06-26T12:42:42;5.88;;;2.42;;
39140;SDS011;24875;48.436;10.298;2023-06-26T12:45:12;3.63;;;2.00;;
39140;SDS011;24875;48.436;10.298;2023-06-26T12:47:40;2.45;;;1.83;;
39140;SDS011;24875;48.436;10.298;2023-06-26T12:50:08;4.57;;;2.10;;
39140;SDS011;24875;48.436;10.298;2023-06-26T12:52:35;3.30;;;1.95;;
39140;SDS011;24875;48.436;10.298;2023-06-26T12:55:01;3.25;;;2.20;;
39140;SDS011;24875;48.436;10.298;2023-06-26T12:57:28;4.25;;;2.50;;
39140;SDS011;24875;48.436;10.298;2023-06-26T12:59:54;4.10;;;2.33;;
39140;SDS011;24875;48.436;10.298;2023-06-26T13:02:21;4.38;;;2.20;;
39140;SDS011;24875;48.436;10.298;2023-06-26T13:04:47;5.20;;;2.40;;
39140;SDS011;24875;48.436;10.298;2023-06-26T13:07:15;2.58;;;1.80;;
39140;SDS011;24875;48.436;10.298;2023-06-26T13:09:41;5.65;;;2.22;;
39140;SDS011;24875;48.436;10.298;2023-06-26T13:12:09;4.72;;;2.38;;
39140;SDS011;24875;48.436;10.298;2023-06-26T13:14:35;4.45;;;2.38;;
39140;SDS011;24875;48.436;10.298;2023-06-26T13:17:03;3.65;;;2.05;;
39140;SDS011;24875;48.436;10.298;2023-06-26T13:19:30;3.55;;;2.20;;
39140;SDS011;24875;48.436;10.298;2023-06-26T13:21:56;5.75;;;2.60;;
39140;SDS011;24875;48.436;10.298;2023-06-26T13:24:24;4.45;;;2.35;;
39140;SDS011;24875;48.436;10.298;2023-06-26T13:26:51;4.00;;;2.75;;
39140;SDS011;24875;48.436;10.298;2023-06-26T13:29:17;4.95;;;2.33;;
39140;SDS011;24875;48.436;10.298;2023-06-26T13:31:43;2.97;;;1.98;;
39140;SDS011;24875;48.436;10.298;2023-06-26T13:34:19;3.78;;;2.10;;
39140;SDS011;24875;48.436;10.298;2023-06-26T13:36:46;4.35;;;2.30;;
39140;SDS011;24875;48.436;10.298;2023-06-26T13:39:13;4.25;;;2.47;;
39140;SDS011;24875;48.436;10.298;2023-06-26T13:41:40;4.50;;;2.55;;
39140;SDS011;24875;48.436;10.298;2023-06-26T13:44:07;4.03;;;2.53;;
39140;SDS011;24875;48.436;10.298;2023-06-26T13:46:33;3.53;;;2.00;;
39140;SDS011;24875;48.436;10.298;2023-06-26T13:49:00;2.95;;;1.98;;
39140;SDS011;24875;48.436;10.298;2023-06-26T13:51:26;5.40;;;2.80;;
39140;SDS011;24875;48.436;10.298;2023-06-26T13:53:52;4.18;;;2.45;;
39140;SDS011;24875;48.436;10.298;2023-06-26T13:56:20;6.88;;;2.28;;
39140;SDS011;24875;48.436;10.298;2023-06-26T13:58:49;4.78;;;2.40;;
39140;SDS011;24875;48.436;10.298;2023-06-26T14:01:15;4.00;;;2.45;;
39140;SDS011;24875;48.436;10.298;2023-06-26T14:03:42;5.43;;;2.40;;
39140;SDS011;24875;48.436;10.298;2023-06-26T14:06:08;5.30;;;2.38;;
39140;SDS011;24875;48.436;10.298;2023-06-26T14:08:35;4.07;;;2.50;;
39140;SDS011;24875;48.436;10.298;2023-06-26T14:11:01;4.43;;;2.42;;
39140;SDS011;24875;48.436;10.298;2023-06-26T14:13:27;6.13;;;3.00;;
39140;SDS011;24875;48.436;10.298;2023-06-26T14:15:55;3.60;;;2.60;;
39140;SDS011;24875;48.436;10.298;2023-06-26T14:18:22;4.78;;;2.67;;
39140;SDS011;24875;48.436;10.298;2023-06-26T14:20:48;6.80;;;2.90;;
39140;SDS011;24875;48.436;10.298;2023-06-26T14:23:15;4.35;;;2.65;;
39140;SDS011;24875;48.436;10.298;2023-06-26T14:25:41;6.80;;;3.67;;
39140;SDS011;24875;48.436;10.298;2023-06-26T14:28:07;5.18;;;2.83;;
39140;SDS011;24875;48.436;10.298;2023-06-26T14:30:34;5.15;;;2.63;;
39140;SDS011;24875;48.436;10.298;2023-06-26T14:33:02;5.72;;;2.65;;
39140;SDS011;24875;48.436;10.298;2023-06-26T14:35:28;4.35;;;2.60;;
39140;SDS011;24875;48.436;10.298;2023-06-26T14:37:55;5.25;;;2.55;;